Time;durP1;ratioP1;P1;durP2;ratioP2;P2;SDS_P1;SDS_P2;PMS_P1;PMS_P2;Temp;Humidity;BMP_temperature;BMP_pressure;BME280_temperature;BME280_humidity;BME280_pressure;Samples;Min_cycle;Max_cycle;Signal;HPM_P1;HPM_P2
2022/11/08 00:01:55;;;;;;;8.50;7.70;;;11.20;98.30;;;;;;5026725;28;20203;-89
2022/11/08 00:04:21;;;;;;;9.77;8.37;;;11.10;98.30;;;;;;5032330;28;20256;-90
2022/11/08 00:15:01;;;;;;;8.63;7.73;;;11.10;98.90;;;;;;5030817;28;20208;-89
2022/11/08 00:17:28;;;;;;;10.33;8.00;;;11.10;97.70;;;;;;5026422;28;20181;-90
2022/11/08 00:19:54;;;;;;;8.67;7.80;;;11.00;97.10;;;;;;5026319;28;20259;-89
2022/11/08 00:22:22;;;;;;;8.77;7.23;;;10.90;97.90;;;;;;5035327;28;20210;-89
2022/11/08 00:24:48;;;;;;;8.70;7.83;;;10.90;98.10;;;;;;5029381;28;20206;-90
2022/11/08 00:27:19;;;;;;;9.30;8.30;;;10.80;98.10;;;;;;5029319;28;20198;-89
2022/11/08 00:29:45;;;;;;;10.00;7.80;;;10.80;98.60;;;;;;5018954;28;20628;-90
2022/11/08 00:32:16;;;;;;;10.33;8.63;;;10.80;98.30;;;;;;5031864;28;20185;-90
2022/11/08 00:34:41;;;;;;;10.23;7.23;;;10.80;98.10;;;;;;5024193;28;20655;-89
2022/11/08 00:37:07;;;;;;;10.53;9.40;;;10.90;98.10;;;;;;5033543;28;20185;-90
2022/11/08 00:39:33;;;;;;;12.57;10.00;;;10.80;98.70;;;;;;5030502;28;20294;-90
2022/11/08 00:41:59;;;;;;;14.03;11.03;;;10.90;99.20;;;;;;5041343;28;20211;-89
2022/11/08 00:44:25;;;;;;;12.53;9.10;;;10.90;99.10;;;;;;5028731;28;20189;-89
2022/11/08 00:46:51;;;;;;;12.07;8.10;;;11.00;99.30;;;;;;5029640;28;20254;-89
2022/11/08 00:49:17;;;;;;;8.63;7.70;;;10.90;98.20;;;;;;5029611;28;20206;-89
2022/11/08 00:51:43;;;;;;;9.37;7.73;;;10.80;97.50;;;;;;5033105;28;20199;-90
2022/11/08 00:54:12;;;;;;;7.47;6.77;;;10.70;98.00;;;;;;5008602;28;20777;-89
2022/11/08 00:56:38;;;;;;;8.93;7.07;;;10.70;98.10;;;;;;5034153;28;20208;-88
2022/11/08 00:59:03;;;;;;;7.57;6.90;;;10.70;98.00;;;;;;5032677;28;20220;-89
2022/11/08 01:01:29;;;;;;;8.37;7.10;;;10.60;97.80;;;;;;5032910;28;20240;-90
2022/11/08 01:03:55;;;;;;;8.97;7.17;;;10.70;97.60;;;;;;5030969;28;20272;-89
2022/11/08 01:06:23;;;;;;;7.03;6.33;;;10.60;97.70;;;;;;5033896;28;20593;-90
2022/11/08 01:08:49;;;;;;;9.30;6.97;;;10.60;97.60;;;;;;5014508;28;20361;-90
2022/11/08 01:11:18;;;;;;;6.77;6.13;;;10.60;97.00;;;;;;5028974;28;20192;-90
2022/11/08 01:13:44;;;;;;;6.90;6.20;;;10.60;97.00;;;;;;5031106;28;20213;-90
2022/11/08 01:16:21;;;;;;;7.53;5.73;;;10.60;96.90;;;;;;5032777;28;20211;-89
2022/11/08 01:18:49;;;;;;;6.70;6.07;;;10.50;97.00;;;;;;5031619;28;20208;-89
2022/11/08 01:21:15;;;;;;;6.70;5.97;;;10.40;97.30;;;;;;5029656;28;20196;-89
2022/11/08 01:23:42;;;;;;;6.40;5.80;;;10.40;97.20;;;;;;5033316;28;20184;-89
2022/11/08 01:26:11;;;;;;;11.33;6.57;;;10.30;95.80;;;;;;5035541;28;20188;-89
2022/11/08 01:28:37;;;;;;;6.27;5.67;;;10.30;97.30;;;;;;5031124;28;20220;-89
2022/11/08 01:31:05;;;;;;;6.37;5.60;;;10.20;97.60;;;;;;5030949;28;20190;-89
2022/11/08 01:33:32;;;;;;;5.83;5.23;;;10.20;97.30;;;;;;5030822;28;20207;-90
2022/11/08 01:35:58;;;;;;;6.23;5.37;;;10.20;97.20;;;;;;5029946;28;20244;-90
2022/11/08 01:38:24;;;;;;;6.03;5.43;;;10.20;96.90;;;;;;5026201;28;20838;-89
2022/11/08 01:40:49;;;;;;;6.43;5.00;;;10.20;97.10;;;;;;5032828;28;20208;-89
2022/11/08 01:43:30;;;;;;;5.60;4.63;;;10.20;96.90;;;;;;5034465;28;20203;-90
2022/11/08 01:46:15;;;;;;;5.37;4.87;;;10.20;96.60;;;;;;5034940;28;20224;-90
2022/11/08 01:48:48;;;;;;;6.07;4.57;;;10.20;96.50;;;;;;5032915;28;20283;-89
2022/11/08 01:51:18;;;;;;;5.30;4.83;;;10.10;94.00;;;;;;5037300;28;20199;-89
2022/11/08 01:53:45;;;;;;;5.63;5.13;;;9.90;96.90;;;;;;5042326;28;20182;-90
2022/11/08 01:56:14;;;;;;;6.30;4.60;;;9.80;96.20;;;;;;5044628;28;20175;-90
2022/11/08 01:58:40;;;;;;;6.70;4.50;;;9.50;98.60;;;;;;5054978;28;20211;-90
2022/11/08 02:01:06;;;;;;;5.10;4.70;;;9.50;99.10;;;;;;5038675;28;20182;-90
2022/11/08 02:03:33;;;;;;;5.90;4.90;;;9.50;99.40;;;;;;5023334;28;20277;-90
2022/11/08 02:06:02;;;;;;;6.03;4.60;;;9.50;98.50;;;;;;5026736;28;20203;-90
2022/11/08 02:08:38;;;;;;;5.10;4.67;;;9.50;99.70;;;;;;5030670;28;20233;-89
2022/11/08 02:11:05;;;;;;;6.00;5.30;;;9.60;99.40;;;;;;5036209;28;20233;-89
2022/11/08 02:13:33;;;;;;;5.97;4.93;;;9.70;99.30;;;;;;5033540;28;20168;-88
2022/11/08 02:15:59;;;;;;;5.17;4.47;;;9.70;99.10;;;;;;5048434;28;20199;-89
2022/11/08 02:18:27;;;;;;;5.70;4.57;;;9.70;98.70;;;;;;5032039;28;20197;-89
2022/11/08 02:21:05;;;;;;;4.93;4.43;;;9.80;97.20;;;;;;5026094;28;20172;-89
2022/11/08 02:24:08;;;;;;;4.57;4.20;;;9.60;97.60;;;;;;5036015;28;20175;-89
2022/11/08 02:26:35;;;;;;;5.17;4.67;;;9.50;97.60;;;;;;4942102;29;20185;-89
2022/11/08 02:29:25;;;;;;;4.73;4.33;;;9.60;97.60;;;;;;5027248;28;20288;-89
2022/11/08 02:31:51;;;;;;;7.87;4.47;;;9.60;97.60;;;;;;5032191;28;20183;-89
2022/11/08 02:34:18;;;;;;;4.77;4.37;;;9.50;97.50;;;;;;5035748;28;20274;-90
2022/11/08 02:36:46;;;;;;;4.70;4.23;;;9.60;96.60;;;;;;5039314;28;20209;-89
2022/11/08 02:39:12;;;;;;;5.10;4.60;;;9.50;96.80;;;;;;5035860;28;20298;-89
2022/11/08 02:41:38;;;;;;;5.30;4.73;;;9.40;97.40;;;;;;5029883;28;20262;-89
2022/11/08 02:44:03;;;;;;;5.00;4.60;;;9.50;98.00;;;;;;5028723;28;20187;-90
2022/11/08 02:46:29;;;;;;;5.23;4.60;;;9.40;97.10;;;;;;5009433;28;20198;-89
2022/11/08 02:48:55;;;;;;;8.27;4.97;;;9.30;97.40;;;;;;5026504;28;20694;-89
2022/11/08 02:51:20;;;;;;;5.30;4.77;;;9.10;97.90;;;;;;5038140;28;20251;-90
2022/11/08 02:53:46;;;;;;;5.03;4.50;;;9.10;99.40;;;;;;5026493;28;20187;-89
2022/11/08 02:56:12;;;;;;;5.03;4.53;;;9.20;99.30;;;;;;5027072;28;20202;-89
2022/11/08 02:58:37;;;;;;;5.07;4.67;;;9.20;98.10;;;;;;5030996;28;20255;-89
2022/11/08 03:01:03;;;;;;;6.60;4.77;;;8.90;95.50;;;;;;5039850;28;20240;-89
2022/11/08 03:03:29;;;;;;;7.30;5.07;;;8.90;99.00;;;;;;5033578;28;20277;-88
2022/11/08 03:05:57;;;;;;;4.57;4.20;;;8.60;98.30;;;;;;5032378;28;20232;-89
2022/11/08 03:08:23;;;;;;;4.70;4.07;;;8.70;99.40;;;;;;5028171;28;20224;-89
2022/11/08 03:10:49;;;;;;;4.30;3.90;;;8.70;99.90;;;;;;5033202;28;20222;-90
2022/11/08 03:13:14;;;;;;;5.30;4.43;;;8.70;99.80;;;;;;5025155;28;20194;-89
2022/11/08 03:15:40;;;;;;;4.57;4.10;;;8.70;99.90;;;;;;5036109;28;20193;-89
2022/11/08 03:18:06;;;;;;;4.73;4.30;;;8.80;99.30;;;;;;5036273;28;20217;-90
2022/11/08 03:20:31;;;;;;;4.70;4.20;;;8.80;98.90;;;;;;5040835;28;20166;-89
2022/11/08 03:23:01;;;;;;;4.97;4.57;;;8.90;99.90;;;;;;5032683;28;20237;-89
2022/11/08 03:25:27;;;;;;;5.20;4.73;;;9.00;99.50;;;;;;5032101;28;20274;-90
2022/11/08 03:27:53;;;;;;;4.90;4.50;;;9.00;99.90;;;;;;5036195;28;20279;-89
2022/11/08 03:30:19;;;;;;;4.90;4.50;;;9.00;99.90;;;;;;5032123;28;20245;-89
2022/11/08 03:32:51;;;;;;;4.87;4.47;;;8.90;99.90;;;;;;5036782;28;20185;-89
2022/11/08 03:35:17;;;;;;;7.20;4.73;;;8.80;99.90;;;;;;5025653;28;20229;-89
2022/11/08 03:37:51;;;;;;;5.17;4.77;;;8.80;99.90;;;;;;5035172;28;20218;-89
2022/11/08 03:40:17;;;;;;;4.87;4.37;;;9.00;99.90;;;;;;5039457;28;20178;-89
2022/11/08 03:42:43;;;;;;;4.47;4.13;;;8.90;99.90;;;;;;5040321;28;20186;-89
2022/11/08 03:45:10;;;;;;;6.73;4.00;;;8.90;99.90;;;;;;5039170;28;20191;-89
2022/11/08 03:47:43;;;;;;;4.20;3.90;;;8.90;99.90;;;;;;5034473;28;20223;-89
2022/11/08 03:50:10;;;;;;;5.07;4.40;;;9.00;99.90;;;;;;5030910;28;20194;-89
2022/11/08 03:52:44;;;;;;;4.80;4.37;;;9.00;99.90;;;;;;5034668;28;20189;-89
2022/11/08 03:55:10;;;;;;;5.17;4.67;;;9.00;99.10;;;;;;5033095;28;20189;-89
2022/11/08 03:57:37;;;;;;;4.67;4.27;;;9.00;99.90;;;;;;5058131;22;20205;-92
2022/11/08 04:00:07;;;;;;;5.77;4.33;;;9.10;99.20;;;;;;5060735;28;20204;-92
2022/11/08 04:02:33;;;;;;;4.40;4.00;;;9.00;99.00;;;;;;5056528;28;20188;-90
2022/11/08 04:04:59;;;;;;;4.57;4.17;;;9.00;99.60;;;;;;5060858;28;20185;-91
2022/11/08 04:07:25;;;;;;;4.70;4.20;;;8.90;99.60;;;;;;5062670;28;20350;-92
2022/11/08 04:09:50;;;;;;;4.17;3.87;;;8.90;98.90;;;;;;5035422;28;20244;-93
2022/11/08 04:15:15;;;;;;;4.43;4.03;;;8.90;99.90;;;;;;5040406;28;20254;-91
2022/11/08 04:23:16;;;;;;;4.03;3.73;;;8.90;99.90;;;;;;5035282;28;20634;-92
2022/11/08 04:25:42;;;;;;;4.47;3.77;;;8.90;99.90;;;;;;5038432;28;20185;-93
2022/11/08 04:28:08;;;;;;;4.70;4.30;;;8.80;99.60;;;;;;5030141;28;20222;-92
2022/11/08 04:30:34;;;;;;;7.00;4.17;;;8.80;98.30;;;;;;5045587;28;20178;-91
2022/11/08 04:33:01;;;;;;;5.07;4.17;;;8.80;99.00;;;;;;5051410;28;20197;-91
2022/11/08 04:35:28;;;;;;;4.67;4.27;;;8.80;98.60;;;;;;5038811;28;20182;-91
2022/11/08 04:38:01;;;;;;;4.30;3.90;;;8.80;99.40;;;;;;5035602;28;20208;-93
2022/11/08 04:40:28;;;;;;;4.60;4.20;;;8.80;98.60;;;;;;5014250;28;20191;-92
2022/11/08 04:42:54;;;;;;;4.53;4.23;;;8.80;98.60;;;;;;5039370;28;20182;-92
2022/11/08 04:45:20;;;;;;;4.43;4.00;;;8.80;97.30;;;;;;5037577;28;20190;-92
2022/11/08 04:47:46;;;;;;;4.80;4.40;;;8.80;97.90;;;;;;5028582;28;20222;-92
2022/11/08 04:50:13;;;;;;;4.73;4.33;;;8.80;97.70;;;;;;5046931;28;20186;-93
2022/11/08 04:52:39;;;;;;;4.73;4.33;;;8.70;97.00;;;;;;5029168;28;20193;-92
2022/11/08 04:55:05;;;;;;;7.27;4.33;;;8.70;98.10;;;;;;5020698;28;20194;-91
2022/11/08 04:57:31;;;;;;;5.53;3.80;;;8.70;97.80;;;;;;5037367;28;20909;-90
2022/11/08 04:59:59;;;;;;;4.37;4.07;;;8.60;98.50;;;;;;5042576;28;20210;-93
2022/11/08 05:02:25;;;;;;;4.60;4.00;;;8.60;97.80;;;;;;5035758;28;20197;-91
2022/11/08 05:04:50;;;;;;;4.60;4.20;;;8.60;97.70;;;;;;5030816;28;20204;-93
2022/11/08 05:07:16;;;;;;;4.40;4.00;;;8.50;98.70;;;;;;5047973;28;20217;-91
2022/11/08 05:09:41;;;;;;;5.30;4.03;;;8.60;98.00;;;;;;5038984;28;20209;-93
2022/11/08 05:12:07;;;;;;;4.83;4.23;;;8.60;97.80;;;;;;5044111;28;20196;-91
2022/11/08 05:14:33;;;;;;;5.80;4.17;;;8.60;97.60;;;;;;5025087;28;20577;-92
2022/11/08 05:16:59;;;;;;;4.90;4.30;;;8.60;96.30;;;;;;5020894;28;20216;-91
2022/11/08 05:24:53;;;;;;;5.53;4.20;;;8.60;97.80;;;;;;5043986;28;20188;-93
2022/11/08 05:27:19;;;;;;;5.07;4.53;;;8.60;97.60;;;;;;5044947;28;20221;-93
2022/11/08 05:29:45;;;;;;;4.20;3.90;;;8.60;97.60;;;;;;5023784;28;20201;-91
2022/11/08 05:32:10;;;;;;;4.60;4.20;;;8.60;98.00;;;;;;5036150;28;20191;-91
2022/11/08 05:34:36;;;;;;;8.00;5.00;;;8.60;97.60;;;;;;5036447;28;20246;-91
2022/11/08 05:37:02;;;;;;;5.43;4.90;;;8.60;97.30;;;;;;5038449;28;20252;-92
2022/11/08 05:39:27;;;;;;;9.30;5.10;;;8.70;98.50;;;;;;5039711;28;20183;-92
2022/11/08 05:41:53;;;;;;;5.50;5.00;;;8.50;97.20;;;;;;5032056;28;20643;-91
2022/11/08 05:44:19;;;;;;;5.37;4.87;;;8.50;98.50;;;;;;5042175;28;20220;-92
2022/11/08 05:46:44;;;;;;;7.77;6.97;;;8.50;99.40;;;;;;5031388;28;20186;-92
2022/11/08 05:49:10;;;;;;;6.30;5.80;;;8.40;99.00;;;;;;5010250;28;20300;-93
2022/11/08 05:51:36;;;;;;;6.97;5.70;;;8.40;99.90;;;;;;5035144;28;20197;-92
2022/11/08 05:54:02;;;;;;;5.00;4.60;;;8.40;99.90;;;;;;5037356;28;20285;-93
2022/11/08 05:56:27;;;;;;;5.43;4.90;;;8.30;99.90;;;;;;5041001;28;20190;-94
2022/11/08 05:58:53;;;;;;;13.20;12.03;;;8.30;99.90;;;;;;5039094;28;20224;-92
2022/11/08 06:01:19;;;;;;;8.20;7.50;;;8.40;99.90;;;;;;5041940;28;20192;-93
2022/11/08 06:03:47;;;;;;;9.70;7.07;;;8.50;99.90;;;;;;5038900;28;20200;-93
2022/11/08 06:06:16;;;;;;;7.10;6.10;;;8.40;98.50;;;;;;5025858;28;20198;-93
2022/11/08 06:08:42;;;;;;;6.17;5.57;;;8.40;99.60;;;;;;5032463;28;20233;-91
2022/11/08 06:11:10;;;;;;;5.40;5.00;;;8.40;99.60;;;;;;5014144;28;20267;-91
2022/11/08 06:13:36;;;;;;;8.33;7.60;;;8.50;99.20;;;;;;5009594;28;20177;-93
2022/11/08 06:16:05;;;;;;;4.60;4.20;;;8.30;97.60;;;;;;5033202;28;20260;-91
2022/11/08 06:18:31;;;;;;;11.27;6.67;;;8.30;98.60;;;;;;5041193;28;20232;-91
2022/11/08 06:20:58;;;;;;;4.90;4.30;;;8.00;98.40;;;;;;5029110;28;20198;-91
2022/11/08 06:23:24;;;;;;;4.80;4.30;;;7.90;99.90;;;;;;5049464;28;20178;-91
2022/11/08 06:25:50;;;;;;;5.00;4.40;;;8.00;99.90;;;;;;5035523;28;20193;-93
2022/11/08 06:28:16;;;;;;;4.73;4.33;;;8.10;99.90;;;;;;5042412;28;20699;-92
2022/11/08 06:30:41;;;;;;;4.50;4.10;;;8.00;99.90;;;;;;5033207;28;20198;-92
2022/11/08 06:33:07;;;;;;;6.33;4.50;;;8.00;98.40;;;;;;5041181;28;20211;-91
2022/11/08 06:35:33;;;;;;;6.10;4.43;;;7.90;99.90;;;;;;5034918;28;20185;-92
2022/11/08 06:38:00;;;;;;;7.03;5.07;;;8.00;99.90;;;;;;5032463;28;20232;-93
2022/11/08 06:40:26;;;;;;;4.47;3.83;;;8.10;99.90;;;;;;5042024;28;20189;-93
2022/11/08 06:42:52;;;;;;;5.17;4.77;;;8.10;99.90;;;;;;5047424;28;20185;-93
2022/11/08 06:45:18;;;;;;;6.67;6.07;;;8.20;99.90;;;;;;5046887;28;20185;-93
2022/11/08 06:47:44;;;;;;;8.40;5.00;;;8.30;98.90;;;;;;5013965;28;20875;-94
2022/11/08 06:50:13;;;;;;;7.17;5.30;;;8.30;99.80;;;;;;5039537;28;20201;-93
2022/11/08 06:52:39;;;;;;;5.83;4.50;;;8.30;99.70;;;;;;5035160;28;20265;-93
2022/11/08 06:55:05;;;;;;;5.70;5.20;;;8.30;99.70;;;;;;5043015;28;20208;-93
2022/11/08 06:57:32;;;;;;;12.93;11.83;;;8.30;99.80;;;;;;5048321;28;20260;-93
2022/11/08 06:59:58;;;;;;;9.50;8.70;;;8.40;99.90;;;;;;5040661;28;20247;-93
2022/11/08 07:02:24;;;;;;;11.60;10.60;;;8.40;99.90;;;;;;5044200;28;20241;-93
2022/11/08 07:04:50;;;;;;;7.13;6.50;;;8.50;99.90;;;;;;5022364;28;20221;-93
2022/11/08 07:07:15;;;;;;;11.37;10.10;;;8.50;99.90;;;;;;5042353;28;20274;-93
2022/11/08 07:09:42;;;;;;;7.67;6.47;;;8.60;99.00;;;;;;5038761;28;20263;-94
2022/11/08 07:12:10;;;;;;;7.40;6.67;;;8.60;99.10;;;;;;5029057;28;20204;-93
2022/11/08 07:14:36;;;;;;;8.17;7.47;;;8.50;99.60;;;;;;5043059;28;20243;-93
2022/11/08 07:17:02;;;;;;;6.87;6.17;;;8.50;99.90;;;;;;5006587;28;20220;-93
2022/11/08 07:19:28;;;;;;;10.23;9.10;;;8.40;99.90;;;;;;5018728;28;20196;-92
2022/11/08 07:21:54;;;;;;;11.40;9.03;;;8.50;99.90;;;;;;5037836;28;20768;-93
2022/11/08 07:24:19;;;;;;;30.77;23.53;;;8.60;99.90;;;;;;5011192;28;20189;-94
2022/11/08 07:26:45;;;;;;;13.87;12.47;;;8.70;99.90;;;;;;5019130;28;20215;-93
2022/11/08 07:29:11;;;;;;;7.60;6.90;;;8.80;99.90;;;;;;5040982;28;20214;-93
2022/11/08 07:31:37;;;;;;;9.73;8.73;;;8.80;99.90;;;;;;5033450;28;20202;-94
2022/11/08 07:34:05;;;;;;;7.30;5.87;;;8.80;99.90;;;;;;5046832;28;20184;-93
2022/11/08 07:36:31;;;;;;;8.67;7.37;;;8.90;99.90;;;;;;5035762;28;20251;-92
2022/11/08 07:38:57;;;;;;;10.47;7.23;;;8.80;99.90;;;;;;5028875;28;20228;-94
2022/11/08 07:41:22;;;;;;;5.93;5.43;;;8.90;99.90;;;;;;5048066;28;20200;-93
2022/11/08 07:43:51;;;;;;;7.17;6.47;;;9.00;99.90;;;;;;5045873;28;20201;-92
2022/11/08 07:46:17;;;;;;;10.17;7.17;;;9.00;99.90;;;;;;5049801;28;20186;-92
2022/11/08 07:48:42;;;;;;;8.23;6.80;;;9.10;99.90;;;;;;5020870;28;20234;-92
2022/11/08 07:51:08;;;;;;;7.00;6.40;;;9.10;99.90;;;;;;5038143;28;20186;-92
2022/11/08 07:53:35;;;;;;;7.70;6.67;;;9.10;99.90;;;;;;5040916;28;20193;-93
2022/11/08 07:56:02;;;;;;;8.67;6.70;;;9.20;99.90;;;;;;5040237;28;20183;-93
2022/11/08 07:58:30;;;;;;;9.73;8.83;;;9.30;99.90;;;;;;5039703;28;20208;-92
2022/11/08 08:01:01;;;;;;;9.97;9.03;;;9.20;99.90;;;;;;5035804;28;20196;-93
2022/11/08 08:03:32;;;;;;;9.70;7.47;;;9.30;99.90;;;;;;5030260;28;20204;-93
2022/11/08 08:06:00;;;;;;;7.97;7.17;;;9.30;99.90;;;;;;5030334;28;20195;-92
2022/11/08 08:08:26;;;;;;;8.43;7.73;;;9.40;99.90;;;;;;5034849;28;20283;-93
2022/11/08 08:10:56;;;;;;;9.63;7.00;;;9.50;99.90;;;;;;5027411;28;20198;-94
2022/11/08 08:13:22;;;;;;;9.33;6.63;;;9.50;99.90;;;;;;5086901;22;20254;-89
2022/11/08 08:15:47;;;;;;;8.87;7.53;;;9.40;99.90;;;;;;5026504;28;20203;-87
2022/11/08 08:18:13;;;;;;;8.57;7.77;;;9.40;99.90;;;;;;5024996;28;20203;-85
2022/11/08 08:20:39;;;;;;;10.87;8.57;;;9.40;99.90;;;;;;5025446;28;20256;-89
2022/11/08 08:23:05;;;;;;;7.83;7.03;;;9.50;99.90;;;;;;5026048;28;20202;-86
2022/11/08 08:25:31;;;;;;;7.80;7.00;;;9.30;99.90;;;;;;5005930;28;20214;-85
2022/11/08 08:27:59;;;;;;;9.17;6.80;;;9.30;99.90;;;;;;5010568;28;20294;-89
2022/11/08 08:30:26;;;;;;;12.33;7.30;;;9.40;99.90;;;;;;5021961;28;20177;-90
2022/11/08 08:32:59;;;;;;;8.67;6.93;;;9.60;99.90;;;;;;4999295;28;21226;-87
2022/11/08 08:35:25;;;;;;;7.40;6.60;;;9.70;99.90;;;;;;5015454;28;20697;-88
2022/11/08 08:37:50;;;;;;;7.53;6.77;;;9.70;99.90;;;;;;5027358;28;20191;-91
2022/11/08 08:40:16;;;;;;;7.20;5.60;;;9.80;99.90;;;;;;5036467;28;20206;-89
2022/11/08 08:42:42;;;;;;;6.70;5.43;;;9.80;99.90;;;;;;5032215;28;20193;-89
2022/11/08 08:45:09;;;;;;;6.87;6.10;;;9.80;99.90;;;;;;5032962;28;20216;-90
2022/11/08 08:47:35;;;;;;;8.73;6.33;;;10.00;99.90;;;;;;5027332;28;20264;-89
2022/11/08 08:50:01;;;;;;;8.73;5.63;;;10.00;99.90;;;;;;5007753;28;20262;-87
2022/11/08 08:52:26;;;;;;;6.77;6.10;;;10.00;99.90;;;;;;5020086;28;20243;-87
2022/11/08 08:54:52;;;;;;;7.77;5.93;;;10.00;99.90;;;;;;5018911;28;20214;-87
2022/11/08 08:57:18;;;;;;;5.60;5.10;;;10.00;99.90;;;;;;5015425;28;20195;-86
2022/11/08 08:59:43;;;;;;;5.83;5.20;;;10.00;99.90;;;;;;5009544;28;20203;-88
2022/11/08 09:02:10;;;;;;;6.73;6.17;;;10.00;99.90;;;;;;5017288;28;20190;-87
2022/11/08 09:04:37;;;;;;;7.60;6.90;;;10.10;99.90;;;;;;5017153;28;20673;-87
2022/11/08 09:07:03;;;;;;;8.07;6.80;;;10.30;99.90;;;;;;4998341;28;21033;-88
2022/11/08 09:09:29;;;;;;;7.67;6.93;;;10.40;99.90;;;;;;5017528;28;20192;-87
2022/11/08 09:11:54;;;;;;;8.33;7.10;;;10.50;99.90;;;;;;5014383;28;20195;-86
2022/11/08 09:14:23;;;;;;;10.13;7.57;;;10.40;99.90;;;;;;5017539;28;20242;-89
2022/11/08 09:16:48;;;;;;;6.43;5.93;;;10.30;99.90;;;;;;5010781;28;20241;-89
2022/11/08 09:19:14;;;;;;;6.13;5.50;;;10.40;99.90;;;;;;4994481;28;20311;-88
2022/11/08 09:21:40;;;;;;;5.90;5.23;;;10.70;99.90;;;;;;5013181;28;20278;-91
2022/11/08 09:24:06;;;;;;;5.67;5.17;;;10.80;99.90;;;;;;5018021;28;20201;-90
2022/11/08 09:26:31;;;;;;;5.30;4.80;;;10.80;99.90;;;;;;5016359;28;20224;-88
2022/11/08 09:28:59;;;;;;;5.77;5.23;;;10.80;99.90;;;;;;4997380;28;20218;-90
2022/11/08 09:31:25;;;;;;;7.87;5.20;;;10.90;99.90;;;;;;5015801;28;20195;-86
2022/11/08 09:33:50;;;;;;;5.03;4.53;;;11.00;99.90;;;;;;5005598;28;20192;-89
2022/11/08 09:36:16;;;;;;;9.07;4.70;;;11.10;99.90;;;;;;5002732;28;20296;-88
2022/11/08 09:38:42;;;;;;;5.57;4.73;;;11.30;99.90;;;;;;5008334;28;20210;-91
2022/11/08 09:41:42;;;;;;;4.73;3.77;;;11.60;99.30;;;;;;5008245;28;20195;-85
2022/11/08 09:44:17;;;;;;;6.97;4.20;;;11.90;97.40;;;;;;4988465;28;20321;-88
2022/11/08 09:46:48;;;;;;;5.50;4.40;;;12.00;98.10;;;;;;5001934;28;20221;-89
2022/11/08 09:49:27;;;;;;;4.33;3.93;;;12.20;94.90;;;;;;5010059;28;20212;-87
2022/11/08 09:51:53;;;;;;;6.57;3.93;;;12.20;92.90;;;;;;4988281;28;20226;-87
2022/11/08 09:54:26;;;;;;;4.23;3.80;;;12.20;93.20;;;;;;5005632;28;20196;-87
2022/11/08 09:56:54;;;;;;;5.53;4.03;;;12.40;92.30;;;;;;5003434;28;20199;-90
2022/11/08 09:59:42;;;;;;;4.30;3.90;;;12.40;91.30;;;;;;5164330;22;20245;-91
2022/11/08 10:02:22;;;;;;;6.47;4.13;;;12.80;91.80;;;;;;5051783;28;20236;-92
2022/11/08 10:04:57;;;;;;;4.40;4.00;;;12.80;92.20;;;;;;5052971;28;20206;-92
2022/11/08 10:07:56;;;;;;;5.23;3.83;;;13.00;90.50;;;;;;5050400;28;20769;-89
2022/11/08 10:10:25;;;;;;;3.70;3.30;;;13.50;88.00;;;;;;5046620;28;20176;-85
2022/11/08 10:13:22;;;;;;;4.83;3.80;;;13.70;84.90;;;;;;5046311;28;20747;-89
2022/11/08 10:16:22;;;;;;;3.77;3.47;;;13.90;82.40;;;;;;5072248;22;20688;-90
2022/11/08 10:19:14;;;;;;;3.80;3.50;;;14.10;82.00;;;;;;5011041;28;20656;-88
2022/11/08 10:22:03;;;;;;;4.07;3.40;;;14.40;76.00;;;;;;5040275;28;20254;-87
2022/11/08 10:25:18;;;;;;;5.67;4.23;;;14.20;78.60;;;;;;5013505;28;20199;-92
2022/11/08 10:27:44;;;;;;;4.20;3.60;;;14.40;77.00;;;;;;4949426;28;20226;-87
2022/11/08 10:30:22;;;;;;;3.57;3.27;;;14.50;75.70;;;;;;4947720;28;20194;-89
2022/11/08 10:32:52;;;;;;;4.63;3.80;;;14.40;78.20;;;;;;4978704;28;20250;-90
2022/11/08 10:35:39;;;;;;;5.63;3.37;;;14.50;77.00;;;;;;5008173;28;20735;-91
2022/11/08 10:38:17;;;;;;;4.43;4.13;;;14.80;73.70;;;;;;4991869;28;20264;-86
2022/11/08 10:41:00;;;;;;;4.63;3.17;;;15.00;72.50;;;;;;4990286;28;20186;-87
2022/11/08 10:43:40;;;;;;;3.77;3.47;;;15.20;71.60;;;;;;4992265;28;20194;-92
2022/11/08 10:46:34;;;;;;;4.80;4.37;;;15.20;73.30;;;;;;4991904;28;20296;-92
2022/11/08 10:49:29;;;;;;;8.13;3.80;;;15.40;75.90;;;;;;4988527;28;20482;-87
2022/11/08 10:52:00;;;;;;;4.17;3.53;;;15.70;71.40;;;;;;4985703;28;20195;-92
2022/11/08 10:54:51;;;;;;;4.17;3.67;;;16.00;70.10;;;;;;4990907;28;20425;-91
2022/11/08 10:57:44;;;;;;;3.80;3.43;;;15.70;71.60;;;;;;4988824;28;20214;-92
2022/11/08 11:00:28;;;;;;;4.30;3.90;;;16.20;67.30;;;;;;4981991;28;20198;-89
2022/11/08 11:03:27;;;;;;;4.50;3.43;;;16.00;68.90;;;;;;4988405;28;20187;-88
2022/11/08 11:06:28;;;;;;;3.80;3.43;;;16.50;65.80;;;;;;4982005;28;20223;-90
2022/11/08 11:08:57;;;;;;;4.13;3.72;;;16.70;65.20;;;;;;4988944;28;20224;-91
2022/11/08 11:11:31;;;;;;;3.60;3.30;;;17.10;63.30;;;;;;4985581;28;20249;-89
2022/11/08 11:14:24;;;;;;;4.35;3.95;;;17.50;62.90;;;;;;4988512;28;20185;-89
2022/11/08 11:17:13;;;;;;;4.18;3.85;;;17.80;61.70;;;;;;4987665;28;20323;-90
2022/11/08 11:19:43;;;;;;;4.68;3.50;;;18.00;59.90;;;;;;4990200;28;20803;-89
2022/11/08 11:22:12;;;;;;;4.28;3.60;;;17.60;60.80;;;;;;5023319;28;20191;-90
2022/11/08 11:24:50;;;;;;;4.57;3.92;;;17.10;63.60;;;;;;5024421;28;20194;-89
2022/11/08 11:27:27;;;;;;;7.15;3.60;;;16.80;66.60;;;;;;4988973;28;20604;-86
2022/11/08 11:30:19;;;;;;;4.07;3.63;;;16.50;70.20;;;;;;5019046;28;20193;-89
2022/11/08 11:33:03;;;;;;;4.28;3.67;;;16.30;72.10;;;;;;5022596;28;20310;-84
2022/11/08 11:35:39;;;;;;;5.57;3.75;;;16.30;70.80;;;;;;4990117;28;21512;-93
2022/11/08 11:38:12;;;;;;;7.47;3.97;;;16.60;69.50;;;;;;4992973;28;20197;-90
2022/11/08 11:40:44;;;;;;;9.43;4.18;;;16.70;69.80;;;;;;4989228;28;20196;-86
2022/11/08 11:43:30;;;;;;;8.38;4.65;;;16.60;69.70;;;;;;4989033;28;20202;-89
2022/11/08 11:46:12;;;;;;;5.82;4.10;;;16.70;69.00;;;;;;5021184;28;20305;-91
2022/11/08 11:49:11;;;;;;;4.07;3.65;;;16.80;68.80;;;;;;5002477;28;20245;-91
2022/11/08 11:51:40;;;;;;;5.00;3.42;;;16.80;67.70;;;;;;5000561;28;20182;-91
2022/11/08 11:54:07;;;;;;;4.25;3.50;;;16.80;67.10;;;;;;5004442;28;20230;-94
2022/11/08 11:56:48;;;;;;;4.38;3.65;;;17.00;66.40;;;;;;5004410;28;20209;-91
2022/11/08 11:59:13;;;;;;;8.05;7.35;;;17.20;64.50;;;;;;4991252;28;20182;-87
2022/11/08 12:01:45;;;;;;;8.85;8.15;;;17.20;65.00;;;;;;4985155;28;20190;-92
2022/11/08 12:04:35;;;;;;;7.63;6.88;;;17.30;66.40;;;;;;4992622;28;20278;-89
2022/11/08 12:09:42;;;;;;;5.45;4.35;;;17.30;65.70;;;;;;5127117;22;20706;-93
2022/11/08 12:12:53;;;;;;;6.90;4.50;;;17.30;63.90;;;;;;5078470;28;20186;-94
2022/11/08 12:15:59;;;;;;;;;;;;;;;;;;;;;
2022/11/08 12:19:14;;;;;;;5.15;4.40;;;17.30;61.80;;;;;;5066844;28;20246;-92
2022/11/08 12:22:26;;;;;;;4.53;3.70;;;17.50;61.50;;;;;;5069746;28;20189;-93
2022/11/08 12:25:46;;;;;;;3.95;3.65;;;17.50;64.70;;;;;;5070250;28;20220;-93
2022/11/08 12:28:42;;;;;;;4.93;3.88;;;17.50;65.50;;;;;;5038271;28;20294;-92
2022/11/08 12:35:26;;;;;;;7.57;4.18;;;17.30;67.40;;;;;;5040714;28;20242;-92
2022/11/08 12:38:37;;;;;;;3.72;3.40;;;17.20;65.80;;;;;;4962488;28;20238;-92
2022/11/08 12:41:38;;;;;;;9.35;4.20;;;17.20;65.60;;;;;;4975939;28;20203;-93
2022/11/08 12:44:22;;;;;;;3.60;3.30;;;17.20;66.10;;;;;;5074215;28;20226;-92
2022/11/08 12:47:29;;;;;;;6.65;3.95;;;17.30;64.20;;;;;;5058231;28;20225;-93
2022/11/08 12:50:28;;;;;;;5.80;4.72;;;17.40;65.50;;;;;;5048707;28;20196;-93
2022/11/08 12:53:25;;;;;;;5.15;4.55;;;17.30;67.40;;;;;;5055051;28;20186;-93
2022/11/08 12:55:54;;;;;;;4.50;4.20;;;17.40;67.30;;;;;;5054656;28;20462;-93
2022/11/08 13:02:08;;;;;;;3.90;3.60;;;17.20;69.90;;;;;;5069587;28;20244;-92
2022/11/08 13:04:49;;;;;;;4.03;3.60;;;17.10;69.90;;;;;;5046711;28;20520;-92
2022/11/08 13:07:29;;;;;;;3.83;3.53;;;17.20;70.20;;;;;;5056416;28;20214;-93
2022/11/08 13:10:07;;;;;;;5.85;3.25;;;17.20;73.40;;;;;;5064483;28;20216;-93
2022/11/08 13:19:38;;;;;;;4.80;3.97;;;17.20;73.30;;;;;;5071890;28;20222;-93
2022/11/08 13:22:39;;;;;;;4.60;3.53;;;17.00;75.30;;;;;;5061162;28;20202;-93
2022/11/08 13:25:17;;;;;;;4.68;4.07;;;17.30;71.40;;;;;;5080598;22;20236;-93
2022/11/08 13:27:55;;;;;;;4.32;3.92;;;17.30;70.30;;;;;;5043738;28;20209;-94
2022/11/08 13:30:26;;;;;;;4.40;4.00;;;17.50;71.30;;;;;;5038861;23;20287;-89
2022/11/08 13:33:39;;;;;;;4.85;3.67;;;17.50;72.50;;;;;;5033069;28;20604;-86
2022/11/08 13:36:59;;;;;;;;;;;;;;;;;;;;;
2022/11/08 13:43:26;;;;;;;5.30;3.55;;;18.00;71.30;;;;;;5039429;28;20215;-85
2022/11/08 13:46:36;;;;;;;3.58;3.28;;;18.10;70.00;;;;;;5037654;28;20209;-86
2022/11/08 13:49:21;;;;;;;5.75;4.03;;;18.20;69.20;;;;;;5037427;28;20207;-85
2022/11/08 13:51:50;;;;;;;4.82;4.40;;;18.30;69.40;;;;;;5014335;28;20181;-87
2022/11/08 13:54:31;;;;;;;7.63;4.38;;;18.40;67.70;;;;;;5032391;28;20200;-90
2022/11/08 13:57:38;;;;;;;4.25;3.83;;;18.60;65.40;;;;;;5041163;28;20264;-86
2022/11/08 14:00:31;;;;;;;8.82;4.45;;;18.50;64.90;;;;;;5036491;28;20181;-85
2022/11/08 14:02:57;;;;;;;4.05;3.70;;;18.70;63.10;;;;;;5026906;28;20189;-85